Time;durP1;ratioP1;P1;durP2;ratioP2;P2;SDS_P1;SDS_P2;PMS_P1;PMS_P2;Temp;Humidity;BMP_temperature;BMP_pressure;BME280_temperature;BME280_humidity;BME280_pressure;Samples;Min_cycle;Max_cycle;Signal;HPM_P1;HPM_P2
2024/04/21 00:00:22;;;;;;;0.10;0.10;;;;;;;-139.19;100.00;56970.53;5529531;26;19997;-66
2024/04/21 00:02:47;;;;;;;0.00;0.00;;;;;;;-139.19;100.00;56970.53;5529494;26;19997;-66
2024/04/21 00:05:13;;;;;;;0.10;0.10;;;;;;;-139.19;100.00;56970.53;5529312;26;20005;-66
2024/04/21 00:07:38;;;;;;;0.20;0.20;;;;;;;-139.19;100.00;56970.53;5529406;26;19994;-66
2024/04/21 00:10:04;;;;;;;0.20;0.20;;;;;;;-139.19;100.00;56970.53;5529414;26;20065;-66
2024/04/21 00:12:29;;;;;;;0.20;0.20;;;;;;;-139.19;100.00;56970.53;5529305;26;20003;-66
2024/04/21 00:14:54;;;;;;;0.20;0.20;;;;;;;-139.19;100.00;56970.53;5529284;26;20333;-66
2024/04/21 00:17:20;;;;;;;0.17;0.17;;;;;;;-139.19;100.00;56970.53;5529188;26;19997;-66
2024/04/21 00:19:45;;;;;;;0.10;0.10;;;;;;;-139.19;100.00;56970.53;5529185;26;20009;-66
2024/04/21 00:22:11;;;;;;;0.28;0.20;;;;;;;-139.19;100.00;56970.53;5528799;26;20008;-66
2024/04/21 00:24:36;;;;;;;0.20;0.20;;;;;;;-139.19;100.00;56970.53;5528853;26;19994;-66
2024/04/21 00:27:01;;;;;;;0.20;0.20;;;;;;;-139.19;100.00;56970.53;5528804;26;20021;-66
2024/04/21 00:29:27;;;;;;;0.17;0.17;;;;;;;-139.19;100.00;56970.53;5528703;26;20323;-66
2024/04/21 00:31:52;;;;;;;0.10;0.10;;;;;;;-139.19;100.00;56970.53;5528684;26;19989;-66
2024/04/21 00:34:17;;;;;;;0.10;0.10;;;;;;;-139.19;100.00;56970.53;5528508;26;19993;-66
2024/04/21 00:36:43;;;;;;;0.00;0.00;;;;;;;-139.19;100.00;56970.53;5528756;26;19998;-66
2024/04/21 00:39:08;;;;;;;0.10;0.10;;;;;;;-139.19;100.00;56970.53;5528640;26;20001;-66
2024/04/21 00:41:34;;;;;;;0.03;0.03;;;;;;;-139.19;100.00;56970.53;5528631;26;19993;-66
2024/04/21 00:44:00;;;;;;;0.30;0.30;;;;;;;-139.19;100.00;56970.53;5528534;26;20030;-66
2024/04/21 00:46:25;;;;;;;0.35;0.30;;;;;;;-139.19;100.00;56970.53;5528475;26;19997;-66
2024/04/21 00:48:52;;;;;;;0.10;0.10;;;;;;;-139.19;100.00;56970.53;5528621;26;19994;-66
2024/04/21 00:51:22;;;;;;;0.10;0.10;;;;;;;-139.19;100.00;56970.53;5528457;26;20445;-66
2024/04/21 00:53:51;;;;;;;0.88;0.20;;;;;;;-139.19;100.00;56970.53;5528308;26;20077;-66
2024/04/21 00:56:19;;;;;;;0.10;0.10;;;;;;;-139.19;100.00;56970.53;5528322;26;20329;-66
2024/04/21 00:58:45;;;;;;;0.10;0.10;;;;;;;-139.19;100.00;56970.53;5528383;26;20009;-66
2024/04/21 01:01:10;;;;;;;0.05;0.05;;;;;;;-139.19;100.00;56970.53;5528660;26;20064;-66
2024/04/21 01:03:35;;;;;;;0.73;0.73;;;;;;;-139.19;100.00;56970.53;5496222;26;19997;-66
2024/04/21 01:06:01;;;;;;;0.28;0.28;;;;;;;-139.19;100.00;56970.53;5528552;26;19994;-66
2024/04/21 01:08:27;;;;;;;0.17;0.17;;;;;;;-139.19;100.00;56970.53;5527159;26;20065;-66
2024/04/21 01:10:53;;;;;;;0.30;0.30;;;;;;;-139.19;100.00;56970.53;5528500;26;20373;-68
2024/04/21 01:13:18;;;;;;;0.17;0.17;;;;;;;-139.19;100.00;56970.53;5528344;26;19997;-68
2024/04/21 01:15:44;;;;;;;0.10;0.10;;;;;;;-139.19;100.00;56970.53;5528439;26;20001;-68
2024/04/21 01:18:10;;;;;;;0.10;0.10;;;;;;;-139.19;100.00;56970.53;5528392;26;20353;-69
2024/04/21 01:20:36;;;;;;;0.15;0.15;;;;;;;-139.19;100.00;56970.53;5528658;26;20004;-68
2024/04/21 01:23:02;;;;;;;0.20;0.13;;;;;;;-139.19;100.00;56970.53;5528306;26;20004;-68
2024/04/21 01:25:28;;;;;;;0.10;0.10;;;;;;;-139.19;100.00;56970.53;5528288;26;20342;-68
2024/04/21 01:27:55;;;;;;;0.00;0.00;;;;;;;-139.19;100.00;56970.53;5528239;26;19993;-68
2024/04/21 01:30:20;;;;;;;0.17;0.17;;;;;;;-139.19;100.00;56970.53;5528303;26;20004;-68
2024/04/21 01:32:46;;;;;;;0.10;0.10;;;;;;;-139.19;100.00;56970.53;5528065;26;19997;-68
2024/04/21 01:35:11;;;;;;;0.10;0.10;;;;;;;-139.19;100.00;56970.53;5528060;26;20003;-68
2024/04/21 01:37:36;;;;;;;0.10;0.10;;;;;;;-139.19;100.00;56970.53;5528469;26;20069;-68
2024/04/21 01:40:03;;;;;;;0.20;0.20;;;;;;;-139.19;100.00;56970.53;5528145;26;20016;-68
2024/04/21 01:42:29;;;;;;;0.00;0.00;;;;;;;-139.19;100.00;56970.53;5528003;26;20009;-68
2024/04/21 01:44:55;;;;;;;0.10;0.10;;;;;;;-139.19;100.00;56970.53;5528008;26;20089;-68
2024/04/21 01:47:21;;;;;;;0.10;0.10;;;;;;;-139.19;100.00;56970.53;5527924;26;19997;-69
2024/04/21 01:49:48;;;;;;;0.00;0.00;;;;;;;-139.19;100.00;56970.53;5527914;26;20004;-68
2024/04/21 01:52:13;;;;;;;0.10;0.10;;;;;;;-139.19;100.00;56970.53;5527563;26;19993;-68
2024/04/21 01:54:38;;;;;;;0.10;0.10;;;;;;;-139.19;100.00;56970.53;5527521;26;19997;-68
2024/04/21 01:57:04;;;;;;;0.00;0.00;;;;;;;-139.19;100.00;56970.53;5527568;26;19997;-68
2024/04/21 01:59:29;;;;;;;0.00;0.00;;;;;;;-139.19;100.00;56970.53;5527331;26;20007;-68
2024/04/21 02:01:55;;;;;;;0.10;0.10;;;;;;;-139.19;100.00;56970.53;5527397;26;20436;-68
2024/04/21 02:04:20;;;;;;;0.10;0.10;;;;;;;-139.19;100.00;56970.53;5527355;26;20336;-68
2024/04/21 02:06:45;;;;;;;0.00;0.00;;;;;;;-139.19;100.00;56970.53;5527355;26;19989;-68
2024/04/21 02:09:11;;;;;;;0.10;0.10;;;;;;;-139.19;100.00;56970.53;5527327;26;19990;-68
2024/04/21 02:11:36;;;;;;;0.00;0.00;;;;;;;-139.19;100.00;56970.53;5527317;26;20004;-68
2024/04/21 02:14:01;;;;;;;0.20;0.20;;;;;;;-139.19;100.00;56970.53;5527113;26;20468;-68
2024/04/21 02:16:27;;;;;;;0.10;0.10;;;;;;;-139.19;100.00;56970.53;5527201;26;19997;-68
2024/04/21 02:18:52;;;;;;;0.10;0.10;;;;;;;-139.19;100.00;56970.53;5526835;26;19994;-68
2024/04/21 02:21:17;;;;;;;0.10;0.10;;;;;;;-139.19;100.00;56970.53;5527238;26;20066;-66
2024/04/21 02:23:47;;;;;;;0.08;0.08;;;;;;;-139.19;100.00;56970.53;5527057;26;19997;-66
2024/04/21 02:26:12;;;;;;;0.10;0.10;;;;;;;-139.19;100.00;56970.53;5527095;26;20039;-66
2024/04/21 02:28:37;;;;;;;0.10;0.10;;;;;;;-139.19;100.00;56970.53;5526956;26;19993;-66
2024/04/21 02:31:03;;;;;;;0.10;0.10;;;;;;;-139.19;100.00;56970.53;5526923;26;20001;-66
2024/04/21 02:33:29;;;;;;;0.10;0.10;;;;;;;-139.19;100.00;56970.53;5526836;26;20441;-66
2024/04/21 02:35:54;;;;;;;0.10;0.10;;;;;;;-139.19;100.00;56970.53;5526833;26;20004;-66
2024/04/21 02:38:20;;;;;;;0.05;0.05;;;;;;;-139.19;100.00;56970.53;5526794;26;19998;-66
2024/04/21 02:40:45;;;;;;;0.20;0.20;;;;;;;-139.19;100.00;56970.53;5526768;26;20001;-66
2024/04/21 02:43:10;;;;;;;0.05;0.05;;;;;;;-139.19;100.00;56970.53;5526834;26;20004;-66
2024/04/21 02:45:36;;;;;;;0.10;0.10;;;;;;;-139.19;100.00;56970.53;5526732;26;19998;-66
2024/04/21 02:48:01;;;;;;;0.10;0.10;;;;;;;-139.19;100.00;56970.53;5526672;26;20073;-66
2024/04/21 02:50:26;;;;;;;0.10;0.10;;;;;;;-139.19;100.00;56970.53;5526638;26;20033;-66
2024/04/21 02:52:52;;;;;;;0.17;0.17;;;;;;;-139.19;100.00;56970.53;5526519;26;20315;-66
2024/04/21 02:55:17;;;;;;;0.10;0.10;;;;;;;-139.19;100.00;56970.53;5526508;26;20382;-66
2024/04/21 02:57:43;;;;;;;0.70;0.60;;;;;;;-139.19;100.00;56970.53;5526408;26;19993;-66
2024/04/21 03:00:09;;;;;;;0.52;0.40;;;;;;;-139.19;100.00;56970.53;5526771;26;19997;-66
2024/04/21 03:02:34;;;;;;;0.52;0.45;;;;;;;-139.19;100.00;56970.53;5527032;26;20001;-66
2024/04/21 03:05:00;;;;;;;0.00;0.00;;;;;;;-139.19;100.00;56970.53;5526599;26;19993;-66
2024/04/21 03:07:25;;;;;;;0.10;0.10;;;;;;;-139.19;100.00;56970.53;5526642;26;20433;-66
2024/04/21 03:09:50;;;;;;;0.10;0.10;;;;;;;-139.19;100.00;56970.53;5526511;26;19994;-66
2024/04/21 03:12:16;;;;;;;0.10;0.10;;;;;;;-139.19;100.00;56970.53;5526846;26;20005;-66
2024/04/21 03:14:41;;;;;;;0.20;0.20;;;;;;;-139.19;100.00;56970.53;5526424;26;20002;-66
2024/04/21 03:17:07;;;;;;;0.00;0.00;;;;;;;-139.19;100.00;56970.53;5526769;26;19993;-66
2024/04/21 03:19:32;;;;;;;0.10;0.10;;;;;;;-139.19;100.00;56970.53;5526438;26;19997;-66
2024/04/21 03:21:57;;;;;;;0.10;0.10;;;;;;;-139.19;100.00;56970.53;5526315;26;20007;-66
2024/04/21 03:24:23;;;;;;;0.03;0.03;;;;;;;-139.19;100.00;56970.53;5526346;26;20494;-66
2024/04/21 03:26:48;;;;;;;0.17;0.17;;;;;;;-139.19;100.00;56970.53;5526322;26;19997;-66
2024/04/21 03:29:14;;;;;;;0.10;0.10;;;;;;;-139.19;100.00;56970.53;5526283;26;20445;-66
2024/04/21 03:31:39;;;;;;;0.17;0.17;;;;;;;-139.19;100.00;56970.53;5528543;26;19998;-66
2024/04/21 03:34:04;;;;;;;0.10;0.10;;;;;;;-139.19;100.00;56970.53;5530060;26;20427;-66
2024/04/21 03:36:30;;;;;;;0.10;0.10;;;;;;;-139.19;100.00;56970.53;5529952;26;20065;-66
2024/04/21 03:38:55;;;;;;;0.22;0.22;;;;;;;-139.19;100.00;56970.53;5497508;26;20076;-66
2024/04/21 03:41:20;;;;;;;0.10;0.10;;;;;;;-139.19;100.00;56970.53;5529772;26;20009;-66
2024/04/21 03:43:47;;;;;;;0.20;0.20;;;;;;;-139.19;100.00;56970.53;5529738;26;19994;-66
2024/04/21 03:46:13;;;;;;;0.10;0.10;;;;;;;-139.19;100.00;56970.53;5529687;26;19997;-66
2024/04/21 03:48:39;;;;;;;0.03;0.03;;;;;;;-139.19;100.00;56970.53;5530005;26;20004;-66
2024/04/21 03:51:05;;;;;;;0.15;0.15;;;;;;;-139.19;100.00;56970.53;5529684;26;19993;-66
2024/04/21 03:53:31;;;;;;;0.13;0.13;;;;;;;-139.19;100.00;56970.53;5529554;26;20005;-66
2024/04/21 03:55:56;;;;;;;0.30;0.30;;;;;;;-139.19;100.00;56970.53;5529617;26;19993;-66
2024/04/21 03:58:21;;;;;;;0.15;0.15;;;;;;;-139.19;100.00;56970.53;5529114;26;20004;-66
2024/04/21 04:00:47;;;;;;;0.00;0.00;;;;;;;-139.19;100.00;56970.53;5529424;26;20005;-66
2024/04/21 04:03:12;;;;;;;0.08;0.08;;;;;;;-139.19;100.00;56970.53;5529656;26;20025;-66
2024/04/21 04:05:38;;;;;;;0.20;0.20;;;;;;;-139.19;100.00;56970.53;5529384;26;19993;-66
2024/04/21 04:08:03;;;;;;;0.10;0.10;;;;;;;-139.19;100.00;56970.53;5529388;26;19993;-66
2024/04/21 04:10:29;;;;;;;0.10;0.10;;;;;;;-139.19;100.00;56970.53;5529347;26;20436;-66
2024/04/21 04:12:54;;;;;;;0.10;0.10;;;;;;;-139.19;100.00;56970.53;5529301;26;19989;-66
2024/04/21 04:15:19;;;;;;;0.10;0.10;;;;;;;-139.19;100.00;56970.53;5529268;26;20001;-66
2024/04/21 04:17:45;;;;;;;0.10;0.10;;;;;;;-139.19;100.00;56970.53;5528971;26;19998;-66
2024/04/21 04:20:10;;;;;;;0.10;0.10;;;;;;;-139.19;100.00;56970.53;5528917;26;19989;-66
2024/04/21 04:22:36;;;;;;;0.10;0.10;;;;;;;-139.19;100.00;56970.53;5528925;26;20506;-66
2024/04/21 04:25:03;;;;;;;0.10;0.10;;;;;;;-139.19;100.00;56970.53;5528868;26;20005;-66
2024/04/21 04:27:29;;;;;;;0.22;0.22;;;;;;;-139.19;100.00;56970.53;5528823;26;20426;-66
2024/04/21 04:29:54;;;;;;;0.05;0.05;;;;;;;-139.19;100.00;56970.53;5528788;26;20012;-66
2024/04/21 04:32:19;;;;;;;0.10;0.10;;;;;;;-139.19;100.00;56970.53;5528712;26;20346;-66
2024/04/21 04:34:45;;;;;;;0.20;0.20;;;;;;;-139.19;100.00;56970.53;5528638;26;19993;-66
2024/04/21 04:37:10;;;;;;;0.10;0.10;;;;;;;-139.19;100.00;56970.53;5528955;26;20068;-66
2024/04/21 04:39:35;;;;;;;0.10;0.10;;;;;;;-139.19;100.00;56970.53;5528645;26;20081;-66
2024/04/21 04:42:01;;;;;;;0.03;0.03;;;;;;;-139.19;100.00;56970.53;5528517;26;19993;-66
2024/04/21 04:44:26;;;;;;;0.10;0.10;;;;;;;-139.19;100.00;56970.53;5525634;26;19994;-66
2024/04/21 04:46:51;;;;;;;0.00;0.00;;;;;;;-139.19;100.00;56970.53;5526565;26;19994;-66
2024/04/21 04:49:17;;;;;;;0.10;0.10;;;;;;;-139.19;100.00;56970.53;5526624;26;20034;-66
2024/04/21 04:51:42;;;;;;;0.17;0.17;;;;;;;-139.19;100.00;56970.53;5526473;26;19993;-66
2024/04/21 04:54:07;;;;;;;0.20;0.20;;;;;;;-139.19;100.00;56970.53;5526342;26;20001;-66
2024/04/21 04:56:33;;;;;;;0.10;0.10;;;;;;;-139.19;100.00;56970.53;5525822;26;20001;-66
2024/04/21 04:58:58;;;;;;;0.00;0.00;;;;;;;-139.19;100.00;56970.53;5526382;26;20001;-66
2024/04/21 05:01:23;;;;;;;0.10;0.10;;;;;;;-139.19;100.00;56970.53;5526671;26;19998;-66
2024/04/21 05:03:49;;;;;;;0.10;0.10;;;;;;;-139.19;100.00;56970.53;5526602;26;20348;-66
2024/04/21 05:06:14;;;;;;;0.10;0.10;;;;;;;-139.19;100.00;56970.53;5526526;26;20009;-66
2024/04/21 05:08:39;;;;;;;4.13;1.20;;;;;;;-139.19;100.00;56970.53;5526274;26;20005;-66
2024/04/21 05:11:05;;;;;;;0.10;0.10;;;;;;;-139.19;100.00;56970.53;5526248;26;20033;-66
2024/04/21 05:13:30;;;;;;;0.10;0.10;;;;;;;-139.19;100.00;56970.53;5526468;26;19998;-66
2024/04/21 05:15:55;;;;;;;0.10;0.10;;;;;;;-139.19;100.00;56970.53;5526444;26;20025;-66
2024/04/21 05:18:21;;;;;;;6.75;0.82;;;;;;;-139.19;100.00;56970.53;5526402;26;19997;-66
2024/04/21 05:20:46;;;;;;;0.10;0.10;;;;;;;-139.19;100.00;56970.53;5526424;26;19998;-66
2024/04/21 05:23:11;;;;;;;0.10;0.10;;;;;;;-139.19;100.00;56970.53;5525913;26;20046;-66
2024/04/21 05:25:37;;;;;;;0.20;0.20;;;;;;;-139.19;100.00;56970.53;5526335;26;20009;-66
2024/04/21 05:28:02;;;;;;;0.10;0.10;;;;;;;-139.19;100.00;56970.53;5526402;26;20006;-66
2024/04/21 05:30:27;;;;;;;0.10;0.10;;;;;;;-139.19;100.00;56970.53;5526241;26;20452;-66
2024/04/21 05:32:53;;;;;;;0.10;0.10;;;;;;;-139.19;100.00;56970.53;5526125;26;20008;-66
2024/04/21 05:35:18;;;;;;;2.10;1.10;;;;;;;-139.19;100.00;56970.53;5525622;26;20325;-66
2024/04/21 05:37:46;;;;;;;0.10;0.10;;;;;;;-139.19;100.00;56970.53;5526149;26;20008;-66
2024/04/21 05:40:11;;;;;;;0.10;0.10;;;;;;;-139.19;100.00;56970.53;5526185;26;20437;-66
2024/04/21 05:42:38;;;;;;;0.10;0.10;;;;;;;-139.19;100.00;56970.53;5526076;26;20074;-66
2024/04/21 05:45:03;;;;;;;0.10;0.10;;;;;;;-139.19;100.00;56970.53;5526146;26;20017;-66
2024/04/21 05:47:29;;;;;;;0.10;0.10;;;;;;;-139.19;100.00;56970.53;5525887;26;20005;-66
2024/04/21 05:49:54;;;;;;;0.10;0.10;;;;;;;-139.19;100.00;56970.53;5525686;26;19998;-68
2024/04/21 05:52:19;;;;;;;0.00;0.00;;;;;;;-139.19;100.00;56970.53;5525869;26;19997;-68
2024/04/21 05:54:45;;;;;;;0.20;0.20;;;;;;;-139.19;100.00;56970.53;5525000;26;20025;-68
2024/04/21 05:57:10;;;;;;;0.28;0.28;;;;;;;-139.19;100.00;56970.53;5525665;26;20033;-68
2024/04/21 05:59:35;;;;;;;0.80;0.55;;;;;;;-139.19;100.00;56970.53;5525913;26;20002;-68
2024/04/21 06:02:01;;;;;;;0.20;0.20;;;;;;;-139.19;100.00;56970.53;5525133;26;20001;-68
2024/04/21 06:04:29;;;;;;;0.10;0.10;;;;;;;-139.19;100.00;56970.53;5525691;26;20552;-68
2024/04/21 06:06:54;;;;;;;0.10;0.10;;;;;;;-139.19;100.00;56970.53;5525873;26;20001;-68
2024/04/21 06:09:19;;;;;;;0.17;0.17;;;;;;;-139.19;100.00;56970.53;5525655;26;20033;-68
2024/04/21 06:11:45;;;;;;;0.10;0.10;;;;;;;-139.19;100.00;56970.53;5525686;26;20033;-68
2024/04/21 06:14:10;;;;;;;0.10;0.10;;;;;;;-139.19;100.00;56970.53;5524957;26;20009;-68
2024/04/21 06:16:36;;;;;;;0.10;0.10;;;;;;;-139.19;100.00;56970.53;5500338;26;20045;-68
2024/04/21 06:19:01;;;;;;;0.10;0.10;;;;;;;-139.19;100.00;56970.53;5488563;26;20085;-76
2024/04/21 06:21:26;;;;;;;0.10;0.10;;;;;;;-139.19;100.00;56970.53;5488621;26;20045;-67
2024/04/21 06:23:52;;;;;;;0.00;0.00;;;;;;;-139.19;100.00;56970.53;5488341;26;20097;-67
2024/04/21 06:26:17;;;;;;;0.10;0.10;;;;;;;-139.19;100.00;56970.53;5488216;26;20009;-67
2024/04/21 06:28:42;;;;;;;0.10;0.10;;;;;;;-139.19;100.00;56970.53;5487637;26;19998;-67
2024/04/21 06:31:08;;;;;;;0.10;0.10;;;;;;;-139.19;100.00;56970.53;5488133;26;19994;-67
2024/04/21 06:33:33;;;;;;;0.10;0.10;;;;;;;-139.19;100.00;56970.53;5489221;26;20070;-67
2024/04/21 06:35:59;;;;;;;0.10;0.10;;;;;;;-139.19;100.00;56970.53;5490029;26;19990;-67
2024/04/21 06:38:25;;;;;;;0.10;0.10;;;;;;;-139.19;100.00;56970.53;5490003;26;20012;-67
2024/04/21 06:40:50;;;;;;;0.00;0.00;;;;;;;-139.19;100.00;56970.53;5489946;26;20005;-67
2024/04/21 06:43:16;;;;;;;0.10;0.10;;;;;;;-139.19;100.00;56970.53;5481521;26;20222;-67
2024/04/21 06:45:46;;;;;;;5.63;0.60;;;;;;;-139.19;100.00;56970.53;5486182;26;20323;-67
2024/04/21 06:48:11;;;;;;;0.10;0.10;;;;;;;-139.19;100.00;56970.53;5511091;26;20418;-67
2024/04/21 06:50:38;;;;;;;0.10;0.10;;;;;;;-139.19;100.00;56970.53;5525587;26;20005;-67
2024/04/21 06:53:03;;;;;;;0.10;0.10;;;;;;;-139.19;100.00;56970.53;5525041;26;20349;-67
2024/04/21 06:55:29;;;;;;;0.15;0.15;;;;;;;-139.19;100.00;56970.53;5525689;26;20001;-67
2024/04/21 06:57:54;;;;;;;0.20;0.20;;;;;;;-139.19;100.00;56970.53;5524919;26;20010;-67
2024/04/21 07:00:21;;;;;;;0.10;0.10;;;;;;;-139.19;100.00;56970.53;5525144;26;20402;-66
2024/04/21 07:02:46;;;;;;;0.10;0.10;;;;;;;-139.19;100.00;56970.53;5502142;26;20009;-67
2024/04/21 07:05:12;;;;;;;0.10;0.10;;;;;;;-139.19;100.00;56970.53;5488469;26;20037;-67
2024/04/21 07:07:37;;;;;;;0.17;0.17;;;;;;;-139.19;100.00;56970.53;5492291;26;20074;-67
2024/04/21 07:10:03;;;;;;;0.10;0.10;;;;;;;-139.19;100.00;56970.53;5491825;26;19998;-67
2024/04/21 07:12:28;;;;;;;0.10;0.10;;;;;;;-139.19;100.00;56970.53;5492178;26;20132;-67
2024/04/21 07:14:54;;;;;;;0.45;0.45;;;;;;;-139.19;100.00;56970.53;5490816;26;20002;-67
2024/04/21 07:17:19;;;;;;;15.80;0.93;;;;;;;-139.19;100.00;56970.53;5491217;26;20016;-68
2024/04/21 07:19:45;;;;;;;0.10;0.10;;;;;;;-139.19;100.00;56970.53;5491667;26;19998;-67
2024/04/21 07:22:10;;;;;;;0.10;0.10;;;;;;;-139.19;100.00;56970.53;5491948;26;20002;-67
2024/04/21 07:24:35;;;;;;;0.00;0.00;;;;;;;-139.19;100.00;56970.53;5492089;26;19998;-67
2024/04/21 07:27:01;;;;;;;0.00;0.00;;;;;;;-139.19;100.00;56970.53;5491781;26;20006;-66
2024/04/21 07:29:27;;;;;;;0.03;0.03;;;;;;;-139.19;100.00;56970.53;5501970;26;20013;-67
2024/04/21 07:31:54;;;;;;;0.10;0.10;;;;;;;-139.19;100.00;56970.53;5528538;26;20008;-67
2024/04/21 07:34:19;;;;;;;0.10;0.10;;;;;;;-139.19;100.00;56970.53;5528745;26;19993;-67
2024/04/21 07:36:45;;;;;;;0.15;0.15;;;;;;;-139.19;100.00;56970.53;5528706;26;20012;-66
2024/04/21 07:39:10;;;;;;;0.10;0.10;;;;;;;-139.19;100.00;56970.53;5528557;26;20081;-66
2024/04/21 07:41:35;;;;;;;0.10;0.10;;;;;;;-139.19;100.00;56970.53;5528644;26;20022;-66
2024/04/21 07:44:01;;;;;;;0.00;0.00;;;;;;;-139.19;100.00;56970.53;5527709;26;20391;-66
2024/04/21 07:46:26;;;;;;;0.00;0.00;;;;;;;-139.19;100.00;56970.53;5528555;26;20001;-66
2024/04/21 07:48:52;;;;;;;0.00;0.00;;;;;;;-139.19;100.00;56970.53;5528377;26;20331;-67
2024/04/21 07:51:17;;;;;;;0.10;0.10;;;;;;;-139.19;100.00;56970.53;5528494;26;19998;-67
2024/04/21 07:53:43;;;;;;;0.10;0.10;;;;;;;-139.19;100.00;56970.53;5528511;26;20008;-67
2024/04/21 07:56:09;;;;;;;0.20;0.20;;;;;;;-139.19;100.00;56970.53;5528187;26;20353;-67
2024/04/21 07:58:34;;;;;;;0.10;0.10;;;;;;;-139.19;100.00;56970.53;5527720;26;20008;-66
2024/04/21 08:01:09;;;;;;;0.10;0.10;;;;;;;-139.19;100.00;56970.53;5527818;26;20005;-67
2024/04/21 08:03:35;;;;;;;0.10;0.10;;;;;;;-139.19;100.00;56970.53;5528623;26;20041;-67
2024/04/21 08:06:01;;;;;;;0.10;0.10;;;;;;;-139.19;100.00;56970.53;5527971;26;20016;-68
2024/04/21 08:08:26;;;;;;;0.00;0.00;;;;;;;-139.19;100.00;56970.53;5528396;26;19997;-68
2024/04/21 08:10:56;;;;;;;0.47;0.20;;;;;;;-139.19;100.00;56970.53;5528056;26;20378;-67
2024/04/21 08:13:21;;;;;;;0.20;0.10;;;;;;;-139.19;100.00;56970.53;5527616;26;20012;-67
2024/04/21 08:15:47;;;;;;;0.00;0.00;;;;;;;-139.19;100.00;56970.53;5528071;26;20438;-66
2024/04/21 08:18:12;;;;;;;0.20;0.20;;;;;;;-139.19;100.00;56970.53;5527641;26;20012;-67
2024/04/21 08:20:38;;;;;;;0.10;0.10;;;;;;;-139.19;100.00;56970.53;5528102;26;20505;-67
2024/04/21 08:23:03;;;;;;;0.10;0.10;;;;;;;-139.19;100.00;56970.53;5527859;26;19997;-67
2024/04/21 08:25:29;;;;;;;0.10;0.10;;;;;;;-139.19;100.00;56970.53;5527925;26;20016;-67
2024/04/21 08:27:54;;;;;;;0.03;0.03;;;;;;;-139.19;100.00;56970.53;5527109;26;20001;-67
2024/04/21 08:30:19;;;;;;;0.10;0.10;;;;;;;-139.19;100.00;56970.53;5527710;26;20001;-67
2024/04/21 08:32:46;;;;;;;0.10;0.10;;;;;;;-139.19;100.00;56970.53;5527924;26;19997;-67
2024/04/21 08:35:11;;;;;;;0.05;0.05;;;;;;;-139.19;100.00;56970.53;5527602;26;20008;-67
2024/04/21 08:37:36;;;;;;;0.10;0.10;;;;;;;-139.19;100.00;56970.53;5528058;26;20005;-67
2024/04/21 08:40:02;;;;;;;0.08;0.08;;;;;;;-139.19;100.00;56970.53;5527596;26;20437;-67
2024/04/21 08:42:38;;;;;;;0.20;0.20;;;;;;;-139.19;100.00;56970.53;5527252;26;20076;-66
2024/04/21 08:45:07;;;;;;;4.47;0.47;;;;;;;-139.19;100.00;56970.53;5527583;26;20020;-67
2024/04/21 08:47:34;;;;;;;0.20;0.15;;;;;;;-139.19;100.00;56970.53;5527694;26;20037;-67
2024/04/21 08:50:01;;;;;;;0.10;0.10;;;;;;;-139.19;100.00;56970.53;5527454;26;20009;-67
2024/04/21 08:52:30;;;;;;;0.03;0.03;;;;;;;-139.19;100.00;56970.53;5527662;26;20001;-67
2024/04/21 08:54:55;;;;;;;0.88;0.35;;;;;;;-139.19;100.00;56970.53;5527332;26;20017;-67
2024/04/21 08:57:22;;;;;;;0.00;0.00;;;;;;;-139.19;100.00;56970.53;5526783;26;20013;-67
2024/04/21 08:59:50;;;;;;;0.43;0.15;;;;;;;-139.19;100.00;56970.53;5488008;26;1023950;-66
2024/04/21 09:02:21;;;;;;;1.27;0.50;;;;;;;-139.19;100.00;56970.53;5527430;26;19997;-67
2024/04/21 09:04:48;;;;;;;0.00;0.00;;;;;;;-139.19;100.00;56970.53;5527453;26;20448;-67
2024/04/21 09:07:15;;;;;;;0.10;0.10;;;;;;;-139.19;100.00;56970.53;5527279;26;20008;-66
2024/04/21 09:09:40;;;;;;;0.32;0.32;;;;;;;-139.19;100.00;56970.53;5527550;26;20502;-66
2024/04/21 09:12:06;;;;;;;1.45;0.88;;;;;;;-139.19;100.00;56970.53;5526671;26;20029;-66
2024/04/21 09:14:40;;;;;;;0.00;0.00;;;;;;;-139.19;100.00;56970.53;5527088;26;20016;-66
2024/04/21 09:17:06;;;;;;;0.00;0.00;;;;;;;-139.19;100.00;56970.53;5526968;26;19993;-67
2024/04/21 09:19:31;;;;;;;0.10;0.10;;;;;;;-139.19;100.00;56970.53;5527384;26;19997;-66
2024/04/21 09:21:56;;;;;;;0.30;0.30;;;;;;;-139.19;100.00;56970.53;5526928;26;20009;-67
2024/04/21 09:24:22;;;;;;;0.30;0.30;;;;;;;-139.19;100.00;56970.53;5527315;26;19997;-66
2024/04/21 09:26:48;;;;;;;2.60;0.57;;;;;;;-139.19;100.00;56970.53;5526768;26;19993;-67
2024/04/21 09:29:13;;;;;;;0.47;0.30;;;;;;;-139.19;100.00;56970.53;5525374;26;20137;-66
2024/04/21 09:31:39;;;;;;;2.45;0.63;;;;;;;-139.19;100.00;56970.53;5527236;26;20009;-67
2024/04/21 09:34:04;;;;;;;0.00;0.00;;;;;;;-139.19;100.00;56970.53;5526776;26;20334;-67
2024/04/21 09:36:30;;;;;;;0.00;0.00;;;;;;;-139.19;100.00;56970.53;5526975;26;19997;-67
2024/04/21 09:38:57;;;;;;;0.00;0.00;;;;;;;-139.19;100.00;56970.53;5526789;26;20070;-67
2024/04/21 09:41:24;;;;;;;0.10;0.10;;;;;;;-139.19;100.00;56970.53;5526858;26;20445;-67
2024/04/21 09:43:52;;;;;;;0.65;0.65;;;;;;;-139.19;100.00;56970.53;5526078;26;20433;-67
2024/04/21 09:46:19;;;;;;;0.38;0.38;;;;;;;-139.19;100.00;56970.53;5526799;26;20443;-67
2024/04/21 09:48:49;;;;;;;0.20;0.20;;;;;;;-139.19;100.00;56970.53;5526972;26;20001;-67
2024/04/21 09:51:15;;;;;;;0.10;0.10;;;;;;;-139.19;100.00;56970.53;5526632;26;20462;-67
2024/04/21 09:53:42;;;;;;;0.00;0.00;;;;;;;-139.19;100.00;56970.53;5526856;26;20437;-67
2024/04/21 09:56:11;;;;;;;0.00;0.00;;;;;;;-139.19;100.00;56970.53;5526509;26;20052;-67
2024/04/21 09:58:39;;;;;;;0.00;0.00;;;;;;;-139.19;100.00;56970.53;5526242;26;20001;-67
2024/04/21 10:01:09;;;;;;;0.10;0.10;;;;;;;-139.19;100.00;56970.53;5526522;26;20001;-66
2024/04/21 10:03:39;;;;;;;1.95;1.55;;;;;;;-139.19;100.00;56970.53;5526913;26;20004;-67
2024/04/21 10:06:06;;;;;;;0.10;0.10;;;;;;;-139.19;100.00;56970.53;5526734;26;20045;-67
2024/04/21 10:08:32;;;;;;;1.13;0.30;;;;;;;-139.19;100.00;56970.53;5526824;26;19993;-67
2024/04/21 10:10:59;;;;;;;0.20;0.20;;;;;;;-139.19;100.00;56970.53;5526644;26;20003;-67
2024/04/21 10:13:26;;;;;;;0.15;0.15;;;;;;;-139.19;100.00;56970.53;5525966;26;20321;-67
2024/04/21 10:15:52;;;;;;;0.13;0.13;;;;;;;-139.19;100.00;56970.53;5526443;26;20004;-67
2024/04/21 10:18:23;;;;;;;0.10;0.10;;;;;;;-139.19;100.00;56970.53;5526611;26;19993;-67
2024/04/21 10:20:49;;;;;;;2.45;0.57;;;;;;;-139.19;100.00;56970.53;5526552;26;19997;-68
2024/04/21 10:23:15;;;;;;;0.10;0.10;;;;;;;-139.19;100.00;56970.53;5526514;26;19997;-67
2024/04/21 10:25:44;;;;;;;0.00;0.00;;;;;;;-139.19;100.00;56970.53;5526850;26;20337;-67
2024/04/21 10:28:24;;;;;;;0.00;0.00;;;;;;;-139.19;100.00;56970.53;5525638;26;20008;-67
2024/04/21 10:30:49;;;;;;;0.00;0.00;;;;;;;-139.19;100.00;56970.53;5454138;26;19991;-67
2024/04/21 10:33:15;;;;;;;0.90;0.75;;;;;;;-139.19;100.00;56970.53;5453884;26;19999;-67
2024/04/21 10:35:41;;;;;;;0.00;0.00;;;;;;;-139.19;100.00;56970.53;5454017;26;20368;-67
2024/04/21 10:38:12;;;;;;;2.50;0.43;;;;;;;-139.19;100.00;56970.53;5453984;26;20512;-67
2024/04/21 10:40:38;;;;;;;0.05;0.05;;;;;;;-139.19;100.00;56970.53;5453694;26;20022;-67
2024/04/21 10:43:04;;;;;;;0.00;0.00;;;;;;;-139.19;100.00;56970.53;5453981;26;19999;-67
2024/04/21 10:45:31;;;;;;;0.10;0.10;;;;;;;-139.19;100.00;56970.53;5454130;26;20001;-67
2024/04/21 10:47:57;;;;;;;0.25;0.20;;;;;;;-139.19;100.00;56970.53;5453794;26;20063;-67
2024/04/21 10:50:22;;;;;;;2.92;0.30;;;;;;;-139.19;100.00;56970.53;5453818;26;20007;-66
2024/04/21 10:52:48;;;;;;;0.00;0.00;;;;;;;-139.19;100.00;56970.53;5453737;26;20006;-66
2024/04/21 10:55:14;;;;;;;0.00;0.00;;;;;;;-139.19;100.00;56970.53;5453648;26;20508;-66
2024/04/21 10:57:41;;;;;;;0.00;0.00;;;;;;;-139.19;100.00;56970.53;5455712;26;20062;-66
2024/04/21 11:00:10;;;;;;;0.17;0.17;;;;;;;-139.19;100.00;56970.53;5489503;26;20002;-67
2024/04/21 11:02:35;;;;;;;0.00;0.00;;;;;;;-139.19;100.00;56970.53;5490249;25;20014;-66